• Join FlightAware (Why Join?)
  • Login
  • US Flag 
04:57AM EDT


 

Airport Tracker/Info


-or-


 

Live Flight TrackerFlight Track Log ✈ ACA831 ✈ 07-May-2013 ✈ CYUL - CYYZ

Flight Track Log - Related Links

Times and Time Zones

All times are in EDT time to prevent confusion due to time zone crossing. See the ACA831 flight status page for this flight to view local times or setup timezone preferences in your user account.

Time Position Orientation Groundspeed Altitude Reporting Facility
EDT Latitude Longitude Course Direction KTS MPH feet Rate Location/Type
04:14PM 45.4570 -73.7400 208° Southwest 148 170 1,300  Level FlightAware
04:14PM 45.4390 -73.7620 221° Southwest 182 209 2,700 2,700 Climbing FlightAware
04:15PM 45.4210 -73.7850 222° Southwest 229 264 3,800 3,240 Climbing FlightAware
04:15PM 45.3960 -73.8200 225° Southwest 263 303 5,700 3,600 Climbing FlightAware
04:15PM 45.3880 -73.8410 242° Southwest 273 314 6,500 3,960 Climbing FlightAware
04:16PM 45.3880 -73.8710 270° West 278 320 7,700 4,800 Climbing FlightAware
04:16PM 45.3930 -73.9070 281° West 283 326 9,300 3,480 Climbing FlightAware
04:17PM 45.3970 -73.9940 274° West 339 390 11,500 3,840 Climbing FlightAware
04:17PM 45.4010 -74.0840 274° West 341 392 14,800 4,260 Climbing FlightAware
04:18PM 45.4060 -74.2000 274° West 365 420 17,900 3,300 Climbing FlightAware
04:19PM 45.4100 -74.2990 273° West 375 432 19,800 2,760 Climbing FlightAware
04:20PM 45.4140 -74.3960 273° West 377 434 21,600 2,640 Climbing FlightAware
04:20PM 45.4020 -74.5100 262° West 392 451 23,600 2,640 Climbing FlightAware
04:21PM 45.3840 -74.6130 256° West 402 463 25,400 2,760 Climbing FlightAware
04:22PM 45.3670 -74.7160 257° West 414 476 27,300 2,820 Climbing FlightAware
04:22PM 45.3470 -74.8340 256° West 421 484 29,400 3,060 Climbing FlightAware
04:23PM 45.3290 -74.9390 256° West 410 472 31,700 2,580 Climbing FlightAware
04:24PM 45.3080 -75.0610 256° West 416 479 33,100 1,380 Climbing FlightAware
04:24PM 45.2900 -75.1660 256° West 406 467 33,700 660 Climbing FlightAware
04:25PM 45.2730 -75.2640 256° West 401 461 34,000 180 Climbing FlightAware
04:26PM 45.2520 -75.3810 256° West 399 459 34,000  Level FlightAware
04:27PM 45.2350 -75.4810 256° West 397 457 34,000  Level FlightAware
04:27PM 45.2170 -75.5830 256° West 397 457 34,000  Level FlightAware
04:28PM 45.2020 -75.6660 256° West 396 456 34,000  Level FlightAware
04:29PM 45.1800 -75.7920 256° West 395 455 34,000  Level FlightAware
04:29PM 45.1610 -75.8970 256° West 396 456 34,000  Level FlightAware
04:30PM 45.1440 -75.9900 256° West 397 457 34,000  Level FlightAware
04:31PM 45.1270 -76.0860 256° West 398 458 34,000  Level FlightAware
04:32PM 45.0920 -76.2470 253° West 401 461 34,000  Level FlightAware
04:32PM 45.0570 -76.3410 242° Southwest 402 463 34,000  Level FlightAware
04:33PM 45.0220 -76.4290 241° Southwest 403 464 34,000  Level FlightAware
04:34PM 44.9790 -76.5390 241° Southwest 404 465 34,000  Level FlightAware
04:34PM 44.9420 -76.6300 240° Southwest 404 465 34,000  Level FlightAware
04:35PM 44.9070 -76.7200 241° Southwest 407 468 34,000  Level FlightAware
04:36PM 44.8660 -76.8220 240° Southwest 408 470 34,000  Level FlightAware
04:37PM 44.8280 -76.9170 241° Southwest 409 471 34,000  Level FlightAware
04:37PM 44.7850 -77.0230 240° Southwest 411 473 34,000  Level FlightAware
04:38PM 44.7480 -77.1140 240° Southwest 412 474 34,000  Level FlightAware
04:39PM 44.7110 -77.2060 241° Southwest 412 474 34,000  Level FlightAware
04:39PM 44.6680 -77.3120 240° Southwest 412 474 34,000  Level FlightAware
04:40PM 44.6250 -77.4170 240° Southwest 412 474 34,000  Level FlightAware
04:41PM 44.5950 -77.4920 241° Southwest 413 475 34,000  Level FlightAware
04:42PM 44.5450 -77.6130 240° Southwest 414 476 34,000  Level FlightAware
04:42PM 44.5140 -77.6890 240° Southwest 414 476 34,000  Level FlightAware
04:43PM 44.4730 -77.7880 240° Southwest 415 478 34,000 -360 Level FlightAware
04:44PM 44.4250 -77.9030 240° Southwest 414 476 33,500 -900 Descending FlightAware
04:44PM 44.3940 -77.9770 240° Southwest 409 471 32,800 -1,500 Descending FlightAware
04:45PM 44.3500 -78.0840 240° Southwest 397 457 31,500 -1,860 Descending FlightAware
04:46PM 44.3150 -78.1670 240° Southwest 391 450 30,200 -1,920 Descending FlightAware
04:46PM 44.2720 -78.2680 239° Southwest 385 443 28,800 -1,920 Descending FlightAware
04:47PM 44.2360 -78.3540 240° Southwest 379 436 27,500 -1,920 Descending FlightAware
04:48PM 44.1960 -78.4480 239° Southwest 374 430 26,100 -1,860 Descending FlightAware
04:48PM 44.1620 -78.5290 240° Southwest 370 426 24,900 -1,860 Descending FlightAware
04:49PM 44.1230 -78.6190 239° Southwest 365 420 23,500 -1,860 Descending FlightAware
04:50PM 44.0880 -78.7010 239° Southwest 360 414 22,300 -1,320 Descending FlightAware
04:51PM 44.0550 -78.7780 239° Southwest 334 384 21,800 -720 Descending FlightAware
04:51PM 44.0180 -78.8610 238° Southwest 345 397 21,300 -1,020 Descending FlightAware
04:52PM 43.9840 -78.9350 237° Southwest 344 396 20,400 -1,680 Descending FlightAware
04:53PM 43.9490 -79.0090 237° Southwest 336 387 19,100 -2,580 Descending FlightAware
04:53PM 43.9130 -79.0900 238° Southwest 332 382 16,800 -2,940 Descending FlightAware
04:54PM 43.8800 -79.1610 237° Southwest 320 368 15,000 -2,520 Descending FlightAware
04:55PM 43.8460 -79.2350 238° Southwest 301 346 13,300 -2,280 Descending FlightAware
04:55PM 43.8150 -79.3010 237° Southwest 298 343 11,800 -1,920 Descending FlightAware
04:56PM 43.7840 -79.3620 235° Southwest 292 336 10,800 -1,560 Descending FlightAware
04:57PM 43.7360 -79.4110 216° Southwest 290 334 9,600 -1,560 Descending FlightAware
04:57PM 43.7080 -79.4370 214° Southwest 288 331 9,000 -1,500 Descending FlightAware
04:58PM 43.6910 -79.4530 214° Southwest 287 330 8,600 -1,380 Descending FlightAware
04:58PM 43.6580 -79.4840 214° Southwest 282 325 8,000 -1,200 Descending FlightAware
04:58PM 43.6330 -79.5100 217° Southwest 275 316 7,500 -1,140 Descending FlightAware
04:59PM 43.6030 -79.5400 216° Southwest 259 298 7,000 -1,020 Descending FlightAware
04:59PM 43.5780 -79.5730 224° Southwest 244 281 6,500 -1,140 Descending FlightAware
05:00PM 43.5580 -79.6020 226° Southwest 241 277 6,000 -1,440 Descending FlightAware
05:00PM 43.5360 -79.6350 227° Southwest 239 275 5,200 -1,320 Descending FlightAware
05:01PM 43.5170 -79.6620 226° Southwest 229 264 4,800 -780 Descending FlightAware
05:01PM 43.5080 -79.6790 234° Southwest 216 249 4,700 -840 Descending FlightAware
05:01PM 43.5060 -79.6990 262° West 215 247 4,400 -1,380 Descending FlightAware
05:02PM 43.5070 -79.7400 272° West 216 249 3,700 -1,200 Descending FlightAware
05:02PM 43.5100 -79.7530 288° West 215 247 3,600 -720 Descending FlightAware
05:02PM 43.5200 -79.7680 313° West 203 234 3,400 -840 Descending FlightAware
05:02PM 43.5330 -79.7750 339° North 190 219 3,200 -600 Descending FlightAware
05:03PM 43.5530 -79.7680 14° North 175 201 3,000 -300 Descending FlightAware
05:03PM 43.5630 -79.7590 33° Northeast 171 197 3,000 -420 Level FlightAware
05:04PM 43.5800 -79.7360 44° Northeast 176 203 2,700 -780 Descending FlightAware
05:04PM 43.5940 -79.7160 46° Northeast 170 196 2,300 -1,020 Descending FlightAware
05:05PM 43.6100 -79.6920 47° Northeast 162 186 1,800 -840 Descending FlightAware
05:05PM 43.6160 -79.6840 44° Northeast 153 176 1,700 -780 Descending FlightAware
05:05PM 43.6290 -79.6660 45° Northeast 135 155 1,300 -780 Descending FlightAware
05:06PM 43.6410 -79.6470 49° Northeast 133 153 1,000 -660 Descending FlightAware
05:06PM 43.6510 -79.6330 45° Northeast 136 157 700 -360 Descending FlightAware
05:07PM 43.6610 -79.6180 47° Northeast 136 157 700  Level FlightAware